Time;durP1;ratioP1;P1;durP2;ratioP2;P2;SDS_P1;SDS_P2;PMS_P1;PMS_P2;Temp;Humidity;BMP_temperature;BMP_pressure;BME280_temperature;BME280_humidity;BME280_pressure;Samples;Min_cycle;Max_cycle;Signal;HPM_P1;HPM_P2
2023/08/07 00:02:17;;;;;;;6.13;2.30;;;13.50;99.90;;;;;;5045724;28;20450;-72
2023/08/07 00:05:04;;;;;;;6.20;1.97;;;13.40;99.90;;;;;;5041615;28;20831;-72
2023/08/07 00:07:50;;;;;;;3.70;2.13;;;13.50;99.90;;;;;;5045577;28;20505;-72
2023/08/07 00:10:35;;;;;;;9.20;2.10;;;13.50;99.90;;;;;;5044065;28;20976;-72
2023/08/07 00:13:21;;;;;;;4.63;2.20;;;13.70;99.90;;;;;;5044171;28;20413;-72
2023/08/07 00:16:06;;;;;;;7.30;2.23;;;13.70;99.90;;;;;;5040804;28;20589;-72
2023/08/07 00:18:55;;;;;;;7.03;2.20;;;13.60;99.90;;;;;;5044240;28;20468;-72
2023/08/07 00:21:42;;;;;;;5.33;2.30;;;13.60;99.90;;;;;;5043399;28;20950;-71
2023/08/07 00:24:27;;;;;;;6.60;2.13;;;13.60;99.90;;;;;;5038911;28;20504;-72
2023/08/07 00:27:14;;;;;;;5.83;2.73;;;13.60;99.90;;;;;;5048190;28;20504;-72
2023/08/07 00:29:59;;;;;;;10.07;2.70;;;13.60;99.90;;;;;;5042579;28;20452;-72
2023/08/07 00:32:45;;;;;;;9.00;3.13;;;13.50;99.90;;;;;;5043884;28;20451;-72
2023/08/07 00:35:30;;;;;;;10.30;2.77;;;13.40;99.90;;;;;;5044166;28;20473;-72
2023/08/07 00:38:17;;;;;;;10.53;3.00;;;13.30;99.90;;;;;;5045702;28;20459;-72
2023/08/07 00:41:03;;;;;;;9.93;3.20;;;13.30;99.90;;;;;;5041092;28;20451;-72
2023/08/07 00:43:48;;;;;;;7.90;2.90;;;13.40;99.90;;;;;;5049208;28;20416;-72
2023/08/07 00:46:34;;;;;;;9.47;2.40;;;13.40;99.90;;;;;;5047080;28;20450;-73
2023/08/07 00:49:20;;;;;;;12.30;3.10;;;13.30;99.90;;;;;;5046586;28;20560;-72
2023/08/07 00:52:07;;;;;;;7.37;3.13;;;13.40;99.90;;;;;;5049989;28;20446;-72
2023/08/07 00:54:53;;;;;;;11.13;2.83;;;13.40;99.90;;;;;;5048503;28;20518;-73
2023/08/07 00:57:39;;;;;;;7.10;2.80;;;13.30;99.90;;;;;;5049183;28;20453;-72
2023/08/07 01:00:25;;;;;;;5.80;3.17;;;13.30;99.90;;;;;;5051599;28;20405;-73
2023/08/07 01:03:12;;;;;;;11.00;3.13;;;13.30;99.90;;;;;;5053005;28;20557;-73
2023/08/07 01:05:58;;;;;;;6.80;2.50;;;13.40;99.90;;;;;;5050515;28;20457;-73
2023/08/07 01:08:43;;;;;;;8.90;2.33;;;13.40;99.90;;;;;;5050613;28;20580;-72
2023/08/07 01:11:37;;;;;;;10.37;3.50;;;13.40;99.90;;;;;;5050563;28;20416;-73
2023/08/07 01:14:34;;;;;;;5.10;2.90;;;13.40;99.90;;;;;;5046738;28;20979;-72
2023/08/07 01:17:22;;;;;;;6.67;2.70;;;13.50;99.90;;;;;;5046279;28;20471;-72
2023/08/07 01:20:09;;;;;;;8.03;2.70;;;13.40;99.90;;;;;;5042585;28;20454;-72
2023/08/07 01:22:55;;;;;;;12.97;3.23;;;13.30;99.90;;;;;;5039445;28;20964;-73
2023/08/07 01:25:41;;;;;;;6.80;2.37;;;13.30;99.90;;;;;;5043275;28;20449;-72
2023/08/07 01:28:33;;;;;;;9.63;2.10;;;13.30;99.90;;;;;;5044047;28;21260;-72
2023/08/07 01:31:21;;;;;;;12.70;3.00;;;13.30;99.90;;;;;;5045076;28;20425;-73
2023/08/07 01:34:09;;;;;;;4.93;2.57;;;13.30;99.90;;;;;;5048496;28;20596;-72
2023/08/07 01:36:55;;;;;;;6.43;2.20;;;13.40;99.90;;;;;;5043480;28;20417;-72
2023/08/07 01:39:43;;;;;;;5.87;2.70;;;13.40;99.90;;;;;;5045036;28;20414;-72
2023/08/07 01:42:29;;;;;;;5.80;2.60;;;13.50;99.90;;;;;;5046814;28;20466;-72
2023/08/07 01:45:14;;;;;;;5.53;2.50;;;13.50;99.90;;;;;;5043489;28;21021;-72
2023/08/07 01:48:00;;;;;;;7.80;2.57;;;13.40;99.90;;;;;;5046148;28;20574;-72
2023/08/07 01:50:46;;;;;;;6.20;2.70;;;13.30;99.90;;;;;;5041283;28;20617;-72
2023/08/07 01:53:31;;;;;;;12.10;3.20;;;13.30;99.90;;;;;;5042767;28;20442;-72
2023/08/07 01:56:18;;;;;;;12.07;2.40;;;13.20;99.90;;;;;;5046534;28;20458;-72
2023/08/07 01:59:04;;;;;;;5.63;2.77;;;13.20;99.90;;;;;;5044481;28;20474;-72
2023/08/07 02:01:49;;;;;;;10.80;2.47;;;13.10;99.90;;;;;;5043848;28;20956;-72
2023/08/07 02:04:35;;;;;;;6.63;2.13;;;13.20;99.90;;;;;;5045510;28;20410;-72
2023/08/07 02:07:20;;;;;;;8.30;2.50;;;13.10;99.90;;;;;;5048059;28;20889;-72
2023/08/07 02:10:07;;;;;;;7.50;2.40;;;13.10;99.90;;;;;;5040992;28;20789;-72
2023/08/07 02:12:53;;;;;;;7.27;2.47;;;13.10;99.90;;;;;;5045256;28;20484;-72
2023/08/07 02:15:39;;;;;;;12.83;4.00;;;13.00;99.90;;;;;;5045541;28;20507;-73
2023/08/07 02:18:24;;;;;;;6.10;3.17;;;13.00;99.90;;;;;;5041105;28;20516;-72
2023/08/07 02:21:09;;;;;;;5.83;2.57;;;13.00;99.90;;;;;;5042322;28;20460;-72
2023/08/07 02:23:55;;;;;;;16.03;2.63;;;12.90;99.90;;;;;;5046795;28;20583;-72
2023/08/07 02:26:40;;;;;;;13.63;3.97;;;12.90;99.90;;;;;;5044499;28;20542;-73
2023/08/07 02:29:27;;;;;;;8.43;2.70;;;13.00;99.90;;;;;;5041809;28;20908;-72
2023/08/07 02:32:13;;;;;;;10.23;2.87;;;13.00;99.90;;;;;;5046619;28;20447;-73
2023/08/07 02:34:59;;;;;;;8.80;2.80;;;13.10;99.90;;;;;;5042911;28;20409;-72
2023/08/07 02:37:44;;;;;;;5.03;2.60;;;13.10;99.90;;;;;;5045454;28;20535;-73
2023/08/07 02:40:30;;;;;;;7.97;3.00;;;13.20;99.90;;;;;;5044646;28;20504;-73
2023/08/07 02:43:15;;;;;;;5.90;2.27;;;13.00;99.90;;;;;;5047414;28;20522;-72
2023/08/07 02:46:02;;;;;;;5.87;2.50;;;13.10;99.90;;;;;;5041915;28;20452;-72
2023/08/07 02:48:47;;;;;;;10.33;2.23;;;13.00;99.90;;;;;;5044850;28;20440;-72
2023/08/07 02:51:33;;;;;;;6.30;2.47;;;12.90;99.90;;;;;;5044770;28;20468;-72
2023/08/07 02:54:19;;;;;;;10.83;3.00;;;12.90;99.90;;;;;;5041664;28;20798;-73
2023/08/07 02:57:04;;;;;;;6.17;2.70;;;12.90;99.90;;;;;;5037408;28;20476;-72
2023/08/07 02:59:50;;;;;;;7.60;2.80;;;12.90;99.90;;;;;;5044980;28;20462;-72
2023/08/07 03:02:36;;;;;;;8.70;3.37;;;12.80;99.90;;;;;;5041271;28;20475;-72
2023/08/07 03:05:22;;;;;;;9.93;3.17;;;12.90;99.90;;;;;;5046404;28;20938;-72
2023/08/07 03:08:08;;;;;;;12.60;2.50;;;12.90;99.90;;;;;;5042038;28;20529;-72
2023/08/07 03:10:55;;;;;;;11.53;3.00;;;12.90;99.90;;;;;;5043828;28;20489;-73
2023/08/07 03:13:41;;;;;;;6.33;3.07;;;13.00;99.90;;;;;;5040337;28;20458;-72
2023/08/07 03:16:27;;;;;;;13.40;2.90;;;13.00;99.90;;;;;;5040373;28;20430;-73
2023/08/07 03:19:14;;;;;;;8.10;2.30;;;13.10;99.90;;;;;;5041364;28;20467;-72
2023/08/07 03:21:59;;;;;;;7.50;2.50;;;13.00;99.90;;;;;;5040139;28;20529;-72
2023/08/07 03:24:47;;;;;;;8.03;2.67;;;12.80;99.90;;;;;;5043642;28;20527;-72
2023/08/07 03:27:33;;;;;;;5.50;2.70;;;12.70;99.90;;;;;;5041417;28;20466;-72
2023/08/07 03:30:18;;;;;;;11.37;3.00;;;12.80;99.90;;;;;;5044033;28;21009;-72
2023/08/07 03:33:04;;;;;;;8.70;3.23;;;12.90;99.90;;;;;;5044422;28;21026;-72
2023/08/07 03:35:51;;;;;;;7.80;3.23;;;12.80;99.90;;;;;;5044076;28;20442;-72
2023/08/07 03:38:37;;;;;;;8.80;2.97;;;12.80;99.90;;;;;;5041583;28;20471;-71
2023/08/07 03:41:22;;;;;;;8.07;2.23;;;12.90;99.90;;;;;;5041275;28;20526;-72
2023/08/07 03:44:08;;;;;;;6.07;2.57;;;12.80;99.90;;;;;;5041010;28;20418;-72
2023/08/07 03:46:56;;;;;;;17.60;2.60;;;12.90;99.90;;;;;;5039522;28;20499;-72
2023/08/07 03:49:41;;;;;;;6.80;2.40;;;13.00;99.90;;;;;;5040331;28;20498;-72
2023/08/07 03:52:28;;;;;;;9.63;2.53;;;12.80;99.90;;;;;;5046114;28;20873;-73
2023/08/07 03:55:14;;;;;;;14.00;3.57;;;12.70;99.90;;;;;;5040045;28;21372;-72
2023/08/07 03:57:59;;;;;;;10.03;3.40;;;12.70;99.90;;;;;;5041821;28;20486;-72
2023/08/07 04:00:44;;;;;;;7.37;2.37;;;12.80;99.90;;;;;;5038338;28;20574;-73
2023/08/07 04:03:30;;;;;;;16.03;3.70;;;12.90;99.90;;;;;;5042533;28;20422;-73
2023/08/07 04:06:16;;;;;;;9.23;2.97;;;12.90;99.90;;;;;;5043315;28;20604;-73
2023/08/07 04:09:03;;;;;;;8.77;2.80;;;12.90;99.90;;;;;;5045490;28;20457;-73
2023/08/07 04:11:48;;;;;;;10.07;2.83;;;12.90;99.90;;;;;;5043446;28;20544;-73
2023/08/07 04:14:34;;;;;;;12.57;3.60;;;12.90;99.90;;;;;;5043470;28;21086;-73
2023/08/07 04:17:19;;;;;;;12.37;2.50;;;12.80;99.90;;;;;;5043098;28;20802;-72
2023/08/07 04:20:06;;;;;;;10.43;2.83;;;12.80;99.90;;;;;;5042463;28;20451;-73
2023/08/07 04:22:52;;;;;;;10.83;3.03;;;12.80;99.90;;;;;;5046174;28;20557;-72
2023/08/07 04:25:39;;;;;;;17.63;3.20;;;12.80;99.90;;;;;;5037289;28;20639;-72
2023/08/07 04:28:24;;;;;;;17.27;4.53;;;12.90;99.90;;;;;;5040258;28;20471;-72
2023/08/07 04:31:10;;;;;;;7.23;3.40;;;12.80;99.90;;;;;;5043414;28;20448;-72
2023/08/07 04:33:55;;;;;;;11.90;2.97;;;12.90;99.90;;;;;;5042266;28;20421;-73
2023/08/07 04:36:41;;;;;;;8.63;2.77;;;12.90;99.90;;;;;;5039015;28;20506;-72
2023/08/07 04:39:26;;;;;;;8.57;2.93;;;12.80;99.90;;;;;;5042612;28;20499;-73
2023/08/07 04:42:13;;;;;;;9.90;3.40;;;12.80;99.90;;;;;;5036829;28;20550;-73
2023/08/07 04:44:59;;;;;;;6.63;2.90;;;12.80;99.90;;;;;;5044339;28;20418;-72
2023/08/07 04:47:44;;;;;;;12.33;3.30;;;12.80;99.90;;;;;;5043333;28;20459;-72
2023/08/07 04:50:30;;;;;;;6.40;3.03;;;12.90;99.90;;;;;;5044562;28;20449;-73
2023/08/07 04:53:16;;;;;;;6.97;3.30;;;12.90;99.90;;;;;;5040246;28;20451;-72
2023/08/07 04:56:01;;;;;;;6.90;2.93;;;12.80;99.90;;;;;;5042542;28;21095;-73
2023/08/07 04:58:48;;;;;;;10.33;2.33;;;12.70;99.90;;;;;;5043319;23;20832;-75
2023/08/07 05:01:34;;;;;;;5.13;2.47;;;12.80;99.90;;;;;;5018504;28;20433;-76
2023/08/07 05:04:20;;;;;;;11.73;3.00;;;12.90;99.90;;;;;;5023984;28;20443;-76
2023/08/07 05:07:05;;;;;;;10.47;3.13;;;12.80;99.90;;;;;;5018428;28;20472;-76
2023/08/07 05:09:51;;;;;;;8.97;2.60;;;12.80;99.90;;;;;;5002922;28;20939;-76
2023/08/07 05:12:36;;;;;;;6.30;2.73;;;12.80;99.90;;;;;;5002618;28;20971;-75
2023/08/07 05:15:24;;;;;;;9.27;2.70;;;12.80;99.90;;;;;;5002709;28;20448;-76
2023/08/07 05:18:09;;;;;;;8.50;2.53;;;12.80;99.90;;;;;;5002651;28;20536;-76
2023/08/07 05:20:55;;;;;;;9.50;3.33;;;12.70;99.90;;;;;;5004666;28;20444;-76
2023/08/07 05:23:40;;;;;;;6.00;3.50;;;12.70;99.90;;;;;;5005962;28;20443;-76
2023/08/07 05:26:25;;;;;;;12.93;4.47;;;12.70;99.90;;;;;;5001916;28;20531;-75
2023/08/07 05:29:11;;;;;;;5.60;2.83;;;12.70;99.90;;;;;;5003874;28;20455;-75
2023/08/07 05:31:58;;;;;;;4.70;2.97;;;12.70;99.90;;;;;;5008779;28;20490;-73
2023/08/07 05:34:44;;;;;;;10.73;3.07;;;12.80;99.90;;;;;;5007884;28;20448;-75
2023/08/07 05:37:31;;;;;;;10.70;2.47;;;12.70;99.90;;;;;;5004108;28;20473;-75
2023/08/07 05:40:16;;;;;;;15.77;3.23;;;12.70;99.90;;;;;;5005779;28;20860;-76
2023/08/07 05:43:02;;;;;;;4.40;2.50;;;12.70;99.90;;;;;;5014035;28;21874;-74
2023/08/07 05:45:48;;;;;;;9.23;2.80;;;12.60;99.90;;;;;;5007617;28;20438;-76
2023/08/07 05:48:35;;;;;;;8.30;3.60;;;12.60;99.90;;;;;;5006590;28;20562;-76
2023/08/07 05:51:21;;;;;;;5.40;3.10;;;12.60;99.90;;;;;;5000685;28;20781;-76
2023/08/07 05:54:06;;;;;;;7.90;2.60;;;12.50;99.90;;;;;;5015205;28;20518;-75
2023/08/07 05:56:52;;;;;;;5.67;2.60;;;12.50;99.90;;;;;;5006974;28;20422;-76
2023/08/07 05:59:37;;;;;;;7.77;3.20;;;12.50;99.90;;;;;;5009732;28;20498;-75
2023/08/07 06:02:23;;;;;;;5.90;3.20;;;12.50;99.90;;;;;;5006866;28;20460;-76
2023/08/07 06:05:12;;;;;;;7.17;3.00;;;12.60;99.90;;;;;;5007969;28;20809;-76
2023/08/07 06:07:57;;;;;;;7.57;2.80;;;12.70;99.90;;;;;;5006172;28;20859;-73
2023/08/07 06:10:42;;;;;;;9.80;4.03;;;12.70;99.90;;;;;;5010903;28;20447;-76
2023/08/07 06:13:28;;;;;;;9.07;2.70;;;12.60;99.90;;;;;;5020247;28;20418;-76
2023/08/07 06:16:13;;;;;;;8.70;3.30;;;12.60;99.90;;;;;;5010520;28;20444;-75
2023/08/07 06:18:59;;;;;;;8.33;3.70;;;12.70;99.90;;;;;;5007904;28;20935;-75
2023/08/07 06:21:46;;;;;;;13.03;3.23;;;12.70;99.90;;;;;;5004531;28;20449;-76
2023/08/07 06:24:31;;;;;;;7.70;3.10;;;12.70;99.90;;;;;;5009212;28;20491;-76
2023/08/07 06:27:17;;;;;;;4.87;2.73;;;12.60;99.90;;;;;;5015230;28;20480;-76
2023/08/07 06:30:02;;;;;;;7.07;3.20;;;12.70;99.90;;;;;;5014797;28;20448;-75
2023/08/07 06:32:48;;;;;;;13.33;3.37;;;12.70;99.90;;;;;;5007315;28;20552;-76
2023/08/07 06:35:38;;;;;;;9.93;3.10;;;12.80;99.90;;;;;;5004861;28;20784;-76
2023/08/07 06:38:25;;;;;;;11.77;2.80;;;12.80;99.90;;;;;;5010294;28;21029;-74
2023/08/07 06:41:10;;;;;;;7.90;3.40;;;12.90;99.90;;;;;;5006216;28;21262;-76
2023/08/07 06:43:56;;;;;;;7.30;2.90;;;12.90;99.90;;;;;;5009666;28;20422;-75
2023/08/07 06:46:41;;;;;;;10.47;3.93;;;12.80;99.90;;;;;;5007530;28;20487;-75
2023/08/07 06:49:27;;;;;;;7.33;3.33;;;12.80;99.90;;;;;;5011612;28;20543;-74
2023/08/07 06:52:13;;;;;;;8.13;2.70;;;12.80;99.90;;;;;;5006283;28;20434;-76
2023/08/07 06:54:59;;;;;;;3.77;2.73;;;12.80;99.90;;;;;;5009086;28;20774;-74
2023/08/07 06:57:45;;;;;;;6.07;2.90;;;12.70;99.90;;;;;;5007530;28;20544;-76
2023/08/07 07:00:31;;;;;;;10.23;3.40;;;12.70;99.90;;;;;;5005356;28;20443;-75
2023/08/07 07:03:16;;;;;;;8.63;3.10;;;12.50;99.90;;;;;;5002881;28;20542;-76
2023/08/07 07:06:01;;;;;;;14.73;3.87;;;12.50;99.90;;;;;;5007012;28;20586;-76
2023/08/07 07:08:47;;;;;;;10.70;3.70;;;12.60;99.90;;;;;;5004557;28;20506;-76
2023/08/07 07:11:34;;;;;;;8.80;4.03;;;12.60;99.90;;;;;;5006606;28;22854;-76
2023/08/07 07:14:19;;;;;;;8.70;3.50;;;12.70;99.90;;;;;;5005463;28;20552;-73
2023/08/07 07:17:05;;;;;;;10.50;3.00;;;12.80;99.90;;;;;;5008094;28;20626;-75
2023/08/07 07:19:50;;;;;;;17.03;3.53;;;12.80;99.90;;;;;;5006805;28;20451;-76
2023/08/07 07:22:36;;;;;;;6.70;3.20;;;12.90;99.90;;;;;;5011464;28;20419;-76
2023/08/07 07:25:21;;;;;;;6.70;3.30;;;12.90;99.90;;;;;;5007997;28;20460;-73
2023/08/07 07:28:08;;;;;;;11.57;3.80;;;12.90;99.90;;;;;;5005927;28;21039;-74
2023/08/07 07:30:54;;;;;;;13.27;2.90;;;12.80;99.90;;;;;;5001178;28;20415;-74
2023/08/07 07:33:41;;;;;;;13.90;3.27;;;12.90;99.90;;;;;;5013257;28;20801;-76
2023/08/07 07:36:26;;;;;;;6.30;3.23;;;12.80;99.90;;;;;;5004788;28;20444;-75
2023/08/07 07:39:11;;;;;;;6.80;3.23;;;12.90;99.90;;;;;;5001628;28;20500;-76
2023/08/07 07:41:57;;;;;;;7.67;3.33;;;12.80;99.90;;;;;;5007293;28;20422;-75
2023/08/07 07:44:44;;;;;;;14.37;2.97;;;12.80;99.90;;;;;;5013150;28;20431;-75
2023/08/07 07:47:29;;;;;;;9.93;2.93;;;12.80;99.90;;;;;;5008863;28;20486;-74
2023/08/07 07:50:15;;;;;;;7.30;3.30;;;12.80;99.90;;;;;;4998608;28;21039;-75
2023/08/07 07:53:01;;;;;;;6.80;2.70;;;12.80;99.90;;;;;;5011140;28;20419;-75
2023/08/07 07:55:48;;;;;;;4.03;2.30;;;12.90;99.90;;;;;;5011713;28;20443;-75
2023/08/07 07:58:33;;;;;;;5.53;2.70;;;13.00;99.90;;;;;;5020694;28;21002;-75
2023/08/07 08:01:20;;;;;;;11.40;3.00;;;12.90;99.90;;;;;;4996490;28;20911;-76
2023/08/07 08:04:06;;;;;;;9.90;3.07;;;13.00;99.90;;;;;;5003291;28;20452;-75
2023/08/07 08:06:52;;;;;;;3.60;2.37;;;13.00;99.90;;;;;;5007604;28;20467;-74
2023/08/07 08:09:37;;;;;;;4.07;2.87;;;13.00;99.90;;;;;;5003079;28;20472;-75
2023/08/07 08:12:23;;;;;;;9.40;3.30;;;13.00;99.90;;;;;;5010358;28;20455;-76
2023/08/07 08:15:09;;;;;;;10.83;3.33;;;12.90;99.90;;;;;;5008893;28;20580;-75
2023/08/07 08:17:56;;;;;;;7.93;3.20;;;12.90;99.90;;;;;;5006822;28;20549;-76
2023/08/07 08:20:41;;;;;;;6.43;3.40;;;12.90;99.90;;;;;;5002051;28;20462;-73
2023/08/07 08:23:27;;;;;;;6.50;3.17;;;13.00;99.90;;;;;;5002183;28;20448;-77
2023/08/07 08:26:12;;;;;;;12.40;5.57;;;12.90;99.90;;;;;;5015130;28;20879;-76
2023/08/07 08:28:58;;;;;;;9.67;7.60;;;12.90;99.90;;;;;;5010032;28;20446;-77
2023/08/07 08:31:43;;;;;;;11.30;4.53;;;13.00;99.90;;;;;;4997650;28;20468;-76
2023/08/07 08:34:30;;;;;;;10.60;4.07;;;13.00;99.90;;;;;;5000701;28;20461;-77
2023/08/07 08:37:16;;;;;;;8.87;3.80;;;13.00;99.90;;;;;;4992717;28;20915;-75
2023/08/07 08:40:01;;;;;;;7.10;4.20;;;13.10;99.90;;;;;;5004031;28;20831;-77
2023/08/07 08:42:47;;;;;;;7.87;3.60;;;13.30;99.90;;;;;;5005123;28;20460;-77
2023/08/07 08:45:36;;;;;;;8.10;4.07;;;13.20;99.90;;;;;;5004768;28;20479;-77
2023/08/07 08:48:23;;;;;;;8.13;3.70;;;13.20;99.90;;;;;;4992623;28;20886;-75
2023/08/07 08:51:12;;;;;;;6.50;4.27;;;13.20;99.90;;;;;;5002364;28;20447;-77
2023/08/07 08:53:58;;;;;;;9.20;4.00;;;13.30;99.90;;;;;;5001980;28;20494;-76
2023/08/07 08:56:43;;;;;;;8.90;3.93;;;13.40;99.90;;;;;;4999347;28;20430;-77
2023/08/07 08:59:29;;;;;;;17.60;4.67;;;13.40;99.90;;;;;;5003419;28;21075;-75
2023/08/07 09:02:14;;;;;;;22.03;11.47;;;13.40;99.90;;;;;;4998433;28;20962;-75
2023/08/07 09:05:00;;;;;;;14.73;12.17;;;13.50;99.90;;;;;;5002163;28;20788;-74
2023/08/07 09:07:48;;;;;;;11.57;6.93;;;13.70;99.90;;;;;;5007526;28;20862;-77
2023/08/07 09:10:34;;;;;;;7.70;4.50;;;13.80;99.90;;;;;;5004638;28;20638;-76
2023/08/07 09:13:23;;;;;;;10.97;5.30;;;13.90;99.90;;;;;;5017057;28;20479;-76
2023/08/07 09:16:10;;;;;;;6.40;4.03;;;13.90;99.90;;;;;;5006216;28;20426;-77
2023/08/07 09:18:56;;;;;;;13.63;4.80;;;13.90;99.90;;;;;;4999120;28;20563;-76
2023/08/07 09:21:41;;;;;;;13.47;3.97;;;13.90;99.90;;;;;;5015465;28;20432;-76
2023/08/07 09:24:28;;;;;;;9.93;5.23;;;13.90;99.90;;;;;;5010945;28;20530;-75
2023/08/07 09:27:14;;;;;;;15.40;7.73;;;13.90;99.90;;;;;;5006850;28;20533;-76
2023/08/07 09:30:00;;;;;;;14.20;5.33;;;13.90;99.90;;;;;;5017629;28;20533;-76
2023/08/07 09:32:48;;;;;;;5.90;4.07;;;14.00;99.90;;;;;;5010652;28;20443;-76
2023/08/07 09:35:34;;;;;;;6.93;3.60;;;14.00;99.90;;;;;;5005789;28;20462;-75
2023/08/07 09:38:19;;;;;;;9.37;2.97;;;14.00;99.90;;;;;;5013594;28;20471;-76
2023/08/07 09:41:06;;;;;;;14.30;5.20;;;14.10;99.90;;;;;;5003513;28;20456;-76
2023/08/07 09:43:52;;;;;;;8.93;3.87;;;13.90;99.90;;;;;;5005835;28;20445;-76
2023/08/07 09:46:44;;;;;;;5.30;2.80;;;13.70;99.90;;;;;;5011200;28;20443;-76
2023/08/07 09:49:33;;;;;;;5.93;2.80;;;13.80;99.90;;;;;;5010320;28;20445;-76
2023/08/07 09:52:19;;;;;;;9.40;2.80;;;13.80;99.90;;;;;;5007674;28;20532;-76
2023/08/07 09:55:05;;;;;;;8.37;3.43;;;13.70;99.90;;;;;;5009545;28;20936;-76
2023/08/07 09:57:52;;;;;;;12.07;4.00;;;13.80;99.90;;;;;;5012372;28;20484;-76
2023/08/07 10:00:38;;;;;;;6.70;3.30;;;14.00;99.90;;;;;;5007207;28;20452;-76
2023/08/07 10:03:25;;;;;;;12.30;3.47;;;14.10;99.90;;;;;;5010320;28;20453;-76
2023/08/07 10:06:10;;;;;;;10.27;3.00;;;14.10;99.90;;;;;;5012922;28;20426;-76
2023/08/07 10:08:58;;;;;;;4.63;2.67;;;14.10;99.90;;;;;;5010414;28;20555;-76
2023/08/07 10:11:43;;;;;;;9.13;3.33;;;14.10;99.90;;;;;;5011285;28;20448;-76
2023/08/07 10:14:31;;;;;;;8.30;3.47;;;14.10;99.90;;;;;;5011411;28;20419;-76
2023/08/07 10:17:17;;;;;;;5.20;2.63;;;14.10;99.90;;;;;;5002593;28;20443;-76
2023/08/07 10:20:04;;;;;;;13.07;3.80;;;14.10;99.90;;;;;;5008714;28;20448;-78
2023/08/07 10:22:52;;;;;;;6.53;3.10;;;14.20;99.90;;;;;;5001206;28;20572;-74
2023/08/07 10:25:40;;;;;;;5.60;2.73;;;14.20;99.90;;;;;;5004133;28;20466;-74
2023/08/07 10:28:27;;;;;;;6.37;3.03;;;14.30;99.90;;;;;;5007100;28;20459;-74
2023/08/07 10:31:15;;;;;;;5.17;3.47;;;14.30;99.90;;;;;;5009807;28;20414;-74
2023/08/07 10:34:00;;;;;;;9.67;3.57;;;14.40;99.90;;;;;;5014251;28;20452;-74
2023/08/07 10:36:46;;;;;;;7.07;3.33;;;14.30;99.90;;;;;;5005871;28;20456;-75
2023/08/07 10:39:31;;;;;;;5.50;3.43;;;14.10;99.90;;;;;;5011636;28;20468;-74
2023/08/07 10:42:17;;;;;;;4.90;3.40;;;13.90;99.90;;;;;;5011414;28;20452;-74
2023/08/07 10:45:02;;;;;;;5.97;3.40;;;13.80;99.90;;;;;;5006132;28;20507;-76
2023/08/07 10:48:02;;;;;;;5.70;2.83;;;13.70;99.90;;;;;;5006796;28;20943;-76
2023/08/07 10:50:52;;;;;;;7.57;3.60;;;13.70;99.90;;;;;;5000370;28;20933;-76
2023/08/07 10:53:40;;;;;;;9.70;4.10;;;13.60;99.90;;;;;;5007565;28;20779;-76
2023/08/07 10:56:32;;;;;;;7.73;3.43;;;13.50;99.90;;;;;;5011763;28;20444;-76
2023/08/07 10:59:17;;;;;;;5.97;3.50;;;13.60;99.90;;;;;;5005901;28;20624;-77
2023/08/07 11:02:03;;;;;;;7.43;3.10;;;13.60;99.90;;;;;;4998315;28;20519;-77
2023/08/07 11:04:50;;;;;;;8.80;3.53;;;13.70;99.90;;;;;;5011415;28;20523;-75
2023/08/07 11:07:40;;;;;;;7.17;2.97;;;13.70;99.90;;;;;;5003216;28;20469;-75
2023/08/07 11:10:25;;;;;;;6.97;3.70;;;13.70;99.90;;;;;;4998768;28;20603;-77
2023/08/07 11:13:11;;;;;;;9.27;3.10;;;13.80;99.90;;;;;;5002762;28;20509;-76
2023/08/07 11:15:56;;;;;;;5.67;3.47;;;13.80;99.90;;;;;;5003961;28;20452;-77
2023/08/07 11:18:43;;;;;;;7.90;3.80;;;13.90;99.90;;;;;;4999613;28;20817;-75
2023/08/07 11:21:31;;;;;;;5.30;3.10;;;14.00;99.90;;;;;;4999769;28;20453;-76
2023/08/07 11:24:19;;;;;;;4.27;2.93;;;14.10;99.90;;;;;;5001785;28;20691;-77
2023/08/07 11:27:05;;;;;;;5.93;3.10;;;14.20;99.90;;;;;;5010150;28;20494;-75
2023/08/07 11:29:51;;;;;;;10.03;3.40;;;14.20;99.90;;;;;;5004363;28;20427;-76
2023/08/07 11:32:37;;;;;;;7.67;2.87;;;14.20;99.90;;;;;;5006124;28;21033;-77
2023/08/07 11:35:23;;;;;;;6.00;3.20;;;14.30;99.90;;;;;;5005809;28;20461;-77
2023/08/07 11:38:10;;;;;;;5.50;3.03;;;14.40;99.90;;;;;;5009635;28;20591;-76
2023/08/07 11:40:58;;;;;;;5.87;2.87;;;14.40;99.90;;;;;;5006972;28;21031;-75
2023/08/07 11:43:44;;;;;;;9.13;3.23;;;14.60;99.90;;;;;;5005543;28;20431;-76
2023/08/07 11:46:30;;;;;;;6.83;3.23;;;14.60;99.90;;;;;;5002513;28;20814;-77
2023/08/07 11:49:16;;;;;;;7.03;3.50;;;14.60;99.90;;;;;;5005674;28;20480;-77
2023/08/07 11:52:02;;;;;;;7.17;4.87;;;14.60;99.90;;;;;;5004859;28;21039;-77
2023/08/07 11:54:49;;;;;;;10.73;4.50;;;14.50;99.90;;;;;;5012730;28;20463;-76
2023/08/07 11:57:35;;;;;;;17.00;4.60;;;14.50;99.90;;;;;;5009600;28;20545;-77
2023/08/07 12:00:20;;;;;;;9.57;4.57;;;14.50;99.90;;;;;;5010344;28;21022;-76
2023/08/07 12:03:25;;;;;;;15.43;8.30;;;14.50;99.90;;;;;;4999301;28;20436;-77
2023/08/07 12:06:10;;;;;;;11.50;4.60;;;14.50;99.90;;;;;;5010580;28;20414;-76
2023/08/07 12:08:57;;;;;;;11.93;5.53;;;14.50;99.90;;;;;;5008271;28;20631;-77
2023/08/07 12:11:44;;;;;;;9.00;4.30;;;14.50;99.90;;;;;;5017532;28;20452;-76
2023/08/07 12:14:30;;;;;;;9.37;4.47;;;14.60;99.90;;;;;;5013406;28;20571;-77
2023/08/07 12:17:17;;;;;;;11.10;7.37;;;14.60;99.90;;;;;;5016376;28;20950;-76
2023/08/07 12:20:06;;;;;;;7.70;5.10;;;14.70;99.90;;;;;;5009768;28;20448;-77
2023/08/07 12:22:51;;;;;;;8.93;3.97;;;14.60;99.90;;;;;;5010429;28;20647;-77
2023/08/07 12:25:37;;;;;;;10.53;5.20;;;14.50;99.90;;;;;;5013554;28;20559;-77
2023/08/07 12:28:23;;;;;;;8.27;4.60;;;14.60;99.90;;;;;;5018982;28;20479;-77
2023/08/07 12:31:09;;;;;;;12.23;4.50;;;14.70;99.90;;;;;;5013421;28;20453;-76
2023/08/07 12:33:55;;;;;;;7.33;4.47;;;14.70;99.90;;;;;;5014473;28;20442;-76
2023/08/07 12:36:40;;;;;;;9.10;5.30;;;14.80;99.90;;;;;;5007385;28;20457;-77
2023/08/07 12:39:26;;;;;;;9.40;5.43;;;14.90;99.90;;;;;;5015785;28;20598;-76
2023/08/07 12:42:11;;;;;;;5.80;3.87;;;14.90;99.90;;;;;;5022710;28;20426;-77
2023/08/07 12:44:58;;;;;;;5.33;3.70;;;14.90;99.90;;;;;;5023084;28;20655;-76
2023/08/07 12:47:44;;;;;;;10.00;3.83;;;15.00;99.90;;;;;;5010213;28;20434;-76
2023/08/07 12:50:29;;;;;;;9.23;3.37;;;14.90;99.90;;;;;;5014801;28;20456;-76
2023/08/07 12:53:15;;;;;;;6.73;3.30;;;14.80;99.90;;;;;;5014608;28;20472;-76
2023/08/07 12:56:01;;;;;;;5.60;3.60;;;14.80;99.90;;;;;;5014178;28;20561;-76
2023/08/07 12:58:47;;;;;;;7.40;4.00;;;14.80;99.90;;;;;;5021284;28;20583;-76
2023/08/07 13:01:34;;;;;;;8.63;4.40;;;14.80;99.90;;;;;;5020950;28;20491;-75
2023/08/07 13:04:19;;;;;;;9.80;3.87;;;14.80;99.90;;;;;;5021171;28;20451;-77
2023/08/07 13:07:05;;;;;;;8.40;3.30;;;14.80;99.90;;;;;;5019541;28;20455;-75
2023/08/07 13:09:50;;;;;;;6.93;4.20;;;14.80;99.90;;;;;;5005817;28;20563;-76
2023/08/07 13:12:36;;;;;;;5.43;3.30;;;14.70;99.90;;;;;;5011693;28;20837;-76
2023/08/07 13:15:22;;;;;;;8.43;3.47;;;14.70;99.90;;;;;;5010937;28;20441;-74
2023/08/07 13:18:08;;;;;;;8.00;3.30;;;14.80;99.90;;;;;;5012192;28;20440;-76
2023/08/07 13:20:54;;;;;;;7.27;3.40;;;14.90;99.90;;;;;;5023622;28;20506;-77
2023/08/07 13:23:39;;;;;;;6.93;3.57;;;14.90;99.90;;;;;;5010860;28;20455;-76
2023/08/07 13:26:25;;;;;;;7.37;3.37;;;15.00;99.90;;;;;;5016419;28;20453;-77
2023/08/07 13:29:10;;;;;;;6.73;3.50;;;15.00;99.90;;;;;;5002488;28;20483;-77
2023/08/07 13:31:56;;;;;;;9.93;3.70;;;15.20;99.90;;;;;;5017177;28;20448;-76
2023/08/07 13:34:45;;;;;;;5.27;2.90;;;15.30;99.90;;;;;;5017204;28;20570;-75
2023/08/07 13:37:30;;;;;;;7.33;4.03;;;15.40;99.90;;;;;;5003204;28;20523;-76
2023/08/07 13:40:16;;;;;;;6.50;2.73;;;15.60;99.90;;;;;;5016200;28;20436;-76
2023/08/07 13:43:07;;;;;;;5.17;3.10;;;15.70;99.90;;;;;;5010183;28;20444;-75
2023/08/07 13:45:52;;;;;;;6.80;3.10;;;15.90;99.90;;;;;;5006240;28;20504;-77
2023/08/07 13:48:38;;;;;;;8.33;3.70;;;16.10;99.90;;;;;;5009929;28;20494;-76
2023/08/07 13:51:25;;;;;;;4.93;2.70;;;16.40;99.90;;;;;;5009849;28;20930;-76
2023/08/07 13:54:10;;;;;;;4.13;2.67;;;16.40;99.90;;;;;;5011444;28;20573;-76
2023/08/07 13:56:56;;;;;;;6.30;2.33;;;16.40;99.90;;;;;;5008901;28;20945;-77
2023/08/07 13:59:41;;;;;;;4.03;2.77;;;16.40;99.90;;;;;;5013639;28;20476;-75
2023/08/07 14:02:27;;;;;;;5.77;2.80;;;16.40;99.90;;;;;;5010527;28;20457;-77
2023/08/07 14:05:12;;;;;;;9.90;3.30;;;16.50;99.90;;;;;;5005045;28;20449;-75
2023/08/07 14:07:59;;;;;;;4.70;3.13;;;16.90;99.90;;;;;;5008300;28;20481;-77
2023/08/07 14:10:45;;;;;;;8.33;2.87;;;17.30;99.90;;;;;;4996885;28;20984;-75
2023/08/07 14:13:31;;;;;;;6.53;2.60;;;17.70;99.90;;;;;;4992773;28;20436;-75
2023/08/07 14:16:16;;;;;;;7.77;3.07;;;17.90;99.90;;;;;;5003147;28;20420;-77
2023/08/07 14:19:02;;;;;;;4.60;2.70;;;18.10;99.90;;;;;;5007589;28;20539;-73
2023/08/07 14:21:47;;;;;;;15.43;2.47;;;18.10;99.90;;;;;;5007731;28;20995;-77